Time;durP1;ratioP1;P1;durP2;ratioP2;P2;SDS_P1;SDS_P2;PMS_P1;PMS_P2;Temp;Humidity;BMP_temperature;BMP_pressure;BME280_temperature;BME280_humidity;BME280_pressure;Samples;Min_cycle;Max_cycle;Signal;HPM_P1;HPM_P2
2024/03/16 00:00:17;;;;;;;13.23;3.55;;;;;;;;;;5066073;28;20155;-38
2024/03/16 00:02:44;;;;;;;18.08;3.55;;;;;;;;;;5064003;28;20028;-35
2024/03/16 00:05:11;;;;;;;14.20;3.50;;;;;;;;;;5061710;28;20082;-35
2024/03/16 00:07:38;;;;;;;23.55;6.13;;;;;;;;;;5069485;28;20052;-37
2024/03/16 00:10:06;;;;;;;24.67;5.90;;;;;;;;;;5064764;28;20112;-37
2024/03/16 00:12:34;;;;;;;26.88;5.53;;;;;;;;;;5063634;28;20033;-33
2024/03/16 00:15:01;;;;;;;17.05;5.80;;;;;;;;;;5070815;28;20036;-35
2024/03/16 00:17:28;;;;;;;30.33;7.63;;;;;;;;;;5055902;28;20041;-36
2024/03/16 00:19:55;;;;;;;22.20;7.82;;;;;;;;;;5067682;28;20036;-38
2024/03/16 00:22:22;;;;;;;17.63;7.03;;;;;;;;;;5063221;28;20162;-34
2024/03/16 00:24:49;;;;;;;16.33;5.63;;;;;;;;;;5068979;28;20032;-33
2024/03/16 00:27:18;;;;;;;15.82;5.63;;;;;;;;;;5049605;28;20138;-37
2024/03/16 00:29:45;;;;;;;18.50;5.65;;;;;;;;;;5064264;28;20032;-36
2024/03/16 00:32:12;;;;;;;31.60;7.18;;;;;;;;;;5069088;28;20049;-39
2024/03/16 00:34:38;;;;;;;29.17;6.85;;;;;;;;;;5073128;28;20021;-36
2024/03/16 00:37:05;;;;;;;30.00;6.65;;;;;;;;;;5069657;28;20486;-39
2024/03/16 00:39:32;;;;;;;22.52;6.63;;;;;;;;;;5063509;28;20024;-38
2024/03/16 00:41:59;;;;;;;24.58;6.45;;;;;;;;;;5072897;28;20025;-37
2024/03/16 00:44:26;;;;;;;17.90;6.15;;;;;;;;;;5067151;28;20032;-36
2024/03/16 00:46:53;;;;;;;23.65;5.88;;;;;;;;;;5063113;28;20033;-39
2024/03/16 00:49:20;;;;;;;15.98;5.07;;;;;;;;;;5072705;28;20024;-34
2024/03/16 00:51:47;;;;;;;17.55;5.25;;;;;;;;;;5060126;28;20364;-37
2024/03/16 00:54:15;;;;;;;27.42;6.30;;;;;;;;;;5071130;28;20032;-34
2024/03/16 00:56:43;;;;;;;21.55;5.90;;;;;;;;;;5060119;28;20129;-35
2024/03/16 00:59:10;;;;;;;18.73;5.95;;;;;;;;;;5063234;28;20098;-38
2024/03/16 01:01:37;;;;;;;21.40;6.88;;;;;;;;;;5064886;28;20548;-34
2024/03/16 01:04:05;;;;;;;23.23;7.97;;;;;;;;;;5062832;28;20035;-36
2024/03/16 01:06:32;;;;;;;29.83;10.10;;;;;;;;;;5067385;28;20032;-34
2024/03/16 01:08:59;;;;;;;35.05;8.48;;;;;;;;;;5072003;28;20049;-36
2024/03/16 01:11:26;;;;;;;25.92;8.48;;;;;;;;;;5052973;28;20440;-37
2024/03/16 01:13:53;;;;;;;29.05;14.38;;;;;;;;;;5072345;28;20031;-37
2024/03/16 01:16:20;;;;;;;26.45;11.23;;;;;;;;;;5059091;28;20104;-38
2024/03/16 01:18:47;;;;;;;32.50;16.42;;;;;;;;;;5072113;28;20063;-37
2024/03/16 01:21:15;;;;;;;19.50;8.43;;;;;;;;;;5071851;28;20020;-40
2024/03/16 01:23:42;;;;;;;26.85;9.45;;;;;;;;;;5072276;28;20028;-36
2024/03/16 01:26:09;;;;;;;23.45;9.52;;;;;;;;;;5071865;28;20116;-40
2024/03/16 01:28:36;;;;;;;23.55;10.55;;;;;;;;;;5068008;28;20029;-38
2024/03/16 01:31:03;;;;;;;19.65;10.32;;;;;;;;;;5059531;28;20067;-40
2024/03/16 01:33:30;;;;;;;25.70;9.98;;;;;;;;;;5058943;28;20021;-40
2024/03/16 01:35:57;;;;;;;24.52;10.07;;;;;;;;;;5063968;28;20039;-36
2024/03/16 01:38:24;;;;;;;20.38;7.13;;;;;;;;;;5069291;28;20026;-38
2024/03/16 01:40:51;;;;;;;17.13;6.47;;;;;;;;;;5060123;28;20479;-35
2024/03/16 01:43:18;;;;;;;20.05;6.43;;;;;;;;;;5063564;28;20059;-34
2024/03/16 01:45:46;;;;;;;12.20;5.68;;;;;;;;;;5071592;28;20162;-36
2024/03/16 01:48:14;;;;;;;15.50;5.05;;;;;;;;;;5069606;28;20052;-39
2024/03/16 01:50:41;;;;;;;10.65;3.63;;;;;;;;;;5070529;28;20061;-40
2024/03/16 01:53:12;;;;;;;10.13;3.72;;;;;;;;;;5068371;28;20368;-39
2024/03/16 01:55:39;;;;;;;10.45;3.40;;;;;;;;;;5069710;28;20451;-40
2024/03/16 01:58:09;;;;;;;13.52;4.00;;;;;;;;;;5066221;28;20028;-38
2024/03/16 02:00:36;;;;;;;7.82;3.17;;;;;;;;;;5056725;28;20021;-37
2024/03/16 02:03:03;;;;;;;7.78;3.47;;;;;;;;;;5063398;28;20035;-35
2024/03/16 02:05:31;;;;;;;11.20;3.90;;;;;;;;;;5056675;28;20399;-34
2024/03/16 02:07:59;;;;;;;7.72;3.08;;;;;;;;;;5061154;28;20391;-41
2024/03/16 02:10:26;;;;;;;6.90;2.90;;;;;;;;;;5070745;28;20032;-42
2024/03/16 02:12:53;;;;;;;7.30;2.80;;;;;;;;;;5053797;28;20479;-38
2024/03/16 02:15:21;;;;;;;10.38;2.70;;;;;;;;;;5059508;28;20474;-38
2024/03/16 02:17:48;;;;;;;7.65;3.13;;;;;;;;;;5055732;28;20028;-35
2024/03/16 02:20:15;;;;;;;8.27;3.33;;;;;;;;;;5055329;28;20037;-36
2024/03/16 02:22:42;;;;;;;10.32;3.22;;;;;;;;;;5062935;28;20020;-39
2024/03/16 02:25:13;;;;;;;7.45;2.78;;;;;;;;;;5082431;28;20064;-38
2024/03/16 02:27:40;;;;;;;11.98;2.90;;;;;;;;;;5058539;28;20052;-39
2024/03/16 02:30:10;;;;;;;10.00;2.65;;;;;;;;;;5073665;28;20028;-39
2024/03/16 02:32:38;;;;;;;6.07;2.20;;;;;;;;;;5075859;28;20099;-39
2024/03/16 02:35:08;;;;;;;7.72;2.28;;;;;;;;;;5073526;28;20031;-37
2024/03/16 02:37:35;;;;;;;13.18;2.60;;;;;;;;;;5075447;28;20035;-35
2024/03/16 02:40:05;;;;;;;12.20;2.90;;;;;;;;;;5075254;28;20103;-36
2024/03/16 02:42:32;;;;;;;8.73;2.90;;;;;;;;;;5057266;28;20031;-35
2024/03/16 02:44:59;;;;;;;9.85;3.13;;;;;;;;;;5076575;28;20023;-36
2024/03/16 02:47:26;;;;;;;13.35;3.40;;;;;;;;;;5082225;28;20024;-33
2024/03/16 02:49:53;;;;;;;11.32;3.45;;;;;;;;;;5080264;28;20498;-36
2024/03/16 02:52:20;;;;;;;16.45;3.97;;;;;;;;;;5081312;28;20032;-37
2024/03/16 02:54:47;;;;;;;15.30;5.63;;;;;;;;;;5065119;28;20486;-34
2024/03/16 02:57:14;;;;;;;11.07;4.97;;;;;;;;;;5083454;28;20020;-35
2024/03/16 02:59:41;;;;;;;11.80;4.28;;;;;;;;;;5085121;28;20091;-37
2024/03/16 03:02:08;;;;;;;7.20;2.95;;;;;;;;;;5084818;28;20051;-34
2024/03/16 03:04:35;;;;;;;10.38;2.90;;;;;;;;;;5083345;28;20036;-36
2024/03/16 03:07:04;;;;;;;10.50;3.10;;;;;;;;;;5084510;28;20110;-38
2024/03/16 03:09:33;;;;;;;15.07;2.88;;;;;;;;;;5084879;28;20045;-33
2024/03/16 03:12:00;;;;;;;10.60;2.63;;;;;;;;;;5079532;28;20494;-39
2024/03/16 03:14:27;;;;;;;12.15;2.38;;;;;;;;;;5078524;28;20047;-37
2024/03/16 03:16:53;;;;;;;14.65;2.67;;;;;;;;;;5070429;28;20036;-38
2024/03/16 03:19:20;;;;;;;14.05;2.70;;;;;;;;;;5094903;28;20610;-36
2024/03/16 03:21:47;;;;;;;12.73;2.83;;;;;;;;;;5094817;28;20031;-39
2024/03/16 03:24:14;;;;;;;7.30;2.28;;;;;;;;;;5094829;28;20051;-40
2024/03/16 03:26:41;;;;;;;8.70;2.78;;;;;;;;;;5094620;28;20486;-38
2024/03/16 03:29:08;;;;;;;11.02;2.80;;;;;;;;;;5094646;28;20031;-38
2024/03/16 03:31:35;;;;;;;13.20;2.95;;;;;;;;;;5080224;28;20538;-35
2024/03/16 03:34:03;;;;;;;10.27;2.75;;;;;;;;;;5074368;28;20017;-35
2024/03/16 03:36:30;;;;;;;16.15;3.25;;;;;;;;;;5074461;28;20078;-37
2024/03/16 03:38:57;;;;;;;9.40;3.15;;;;;;;;;;5074260;28;20024;-37
2024/03/16 03:41:27;;;;;;;9.35;3.00;;;;;;;;;;5074122;28;20032;-34
2024/03/16 03:44:09;;;;;;;9.18;2.55;;;;;;;;;;5074121;28;20031;-34
2024/03/16 03:47:09;;;;;;;7.77;2.63;;;;;;;;;;5074074;28;20123;-33
2024/03/16 03:49:31;;;;;;;7.55;3.10;;;;;;;;;;5070927;28;20378;-34
2024/03/16 03:51:58;;;;;;;9.52;3.35;;;;;;;;;;5073970;28;20025;-35
2024/03/16 03:54:26;;;;;;;7.93;3.15;;;;;;;;;;5073965;28;20505;-34
2024/03/16 03:56:53;;;;;;;6.07;2.90;;;;;;;;;;5073822;28;20028;-36
2024/03/16 03:59:21;;;;;;;9.27;2.58;;;;;;;;;;5073910;28;20021;-37
2024/03/16 04:01:48;;;;;;;4.45;2.42;;;;;;;;;;5073804;28;20043;-35
2024/03/16 04:04:15;;;;;;;5.45;2.35;;;;;;;;;;5070296;28;20025;-40
2024/03/16 04:06:44;;;;;;;5.82;2.13;;;;;;;;;;5052629;28;20064;-38
2024/03/16 04:09:12;;;;;;;13.93;2.40;;;;;;;;;;5064117;28;20055;-35
2024/03/16 04:11:43;;;;;;;8.35;2.05;;;;;;;;;;5073814;28;20024;-35
2024/03/16 04:14:10;;;;;;;8.02;1.98;;;;;;;;;;5073817;28;20024;-37
2024/03/16 04:16:37;;;;;;;6.43;1.42;;;;;;;;;;5073730;28;20787;-36
2024/03/16 04:19:04;;;;;;;4.70;1.38;;;;;;;;;;5073556;28;20027;-36
2024/03/16 04:21:31;;;;;;;3.47;1.95;;;;;;;;;;5073565;28;20106;-35
2024/03/16 04:23:58;;;;;;;4.85;1.38;;;;;;;;;;5073614;28;20494;-35
2024/03/16 04:26:25;;;;;;;3.10;1.55;;;;;;;;;;5061365;28;20068;-35
2024/03/16 04:28:52;;;;;;;3.83;1.33;;;;;;;;;;5053459;28;20029;-35
2024/03/16 04:31:19;;;;;;;2.22;1.15;;;;;;;;;;5053385;28;20032;-35
2024/03/16 04:33:46;;;;;;;5.32;1.30;;;;;;;;;;5053365;28;20021;-38
2024/03/16 04:36:13;;;;;;;4.75;1.33;;;;;;;;;;5053384;28;20079;-36
2024/03/16 04:38:40;;;;;;;2.65;1.15;;;;;;;;;;5053199;28;20024;-34
2024/03/16 04:41:07;;;;;;;5.15;1.80;;;;;;;;;;5053284;28;20479;-36
2024/03/16 04:43:34;;;;;;;4.90;1.20;;;;;;;;;;5053231;28;20479;-34
2024/03/16 04:46:02;;;;;;;3.08;1.10;;;;;;;;;;5053084;28;20033;-35
2024/03/16 04:48:29;;;;;;;2.80;1.30;;;;;;;;;;5052908;28;20040;-34
2024/03/16 04:50:56;;;;;;;3.92;1.08;;;;;;;;;;5053106;28;20013;-34
2024/03/16 04:53:23;;;;;;;4.78;1.17;;;;;;;;;;5053030;28;20392;-37
2024/03/16 04:55:54;;;;;;;3.78;1.10;;;;;;;;;;5053065;28;20533;-33
2024/03/16 04:58:22;;;;;;;2.63;1.15;;;;;;;;;;5052815;28;20036;-34
2024/03/16 05:00:49;;;;;;;2.20;1.02;;;;;;;;;;5052620;28;20040;-40
2024/03/16 05:03:17;;;;;;;2.15;1.05;;;;;;;;;;5052715;28;20025;-37
2024/03/16 05:05:44;;;;;;;1.58;0.80;;;;;;;;;;5052779;28;20033;-40
2024/03/16 05:08:12;;;;;;;5.53;1.10;;;;;;;;;;5052526;28;20041;-38
2024/03/16 05:10:38;;;;;;;2.53;1.00;;;;;;;;;;5052772;28;20176;-38
2024/03/16 05:13:05;;;;;;;2.10;1.00;;;;;;;;;;5052568;28;20021;-40
2024/03/16 05:15:32;;;;;;;1.40;0.80;;;;;;;;;;5052652;28;20036;-37
2024/03/16 05:17:59;;;;;;;3.97;0.98;;;;;;;;;;5052378;28;20031;-37
2024/03/16 05:20:26;;;;;;;2.05;0.80;;;;;;;;;;5052531;28;20017;-37
2024/03/16 05:22:53;;;;;;;1.50;1.02;;;;;;;;;;5052493;28;20029;-39
2024/03/16 05:25:20;;;;;;;3.90;1.10;;;;;;;;;;5034297;28;20029;-37
2024/03/16 05:27:47;;;;;;;2.92;1.05;;;;;;;;;;5052372;28;20021;-37
2024/03/16 05:30:15;;;;;;;2.55;1.00;;;;;;;;;;5052378;28;20025;-40
2024/03/16 05:32:42;;;;;;;2.72;1.00;;;;;;;;;;5052229;28;20383;-38
2024/03/16 05:35:10;;;;;;;3.53;1.05;;;;;;;;;;5052241;28;20025;-37
2024/03/16 05:37:37;;;;;;;2.05;0.88;;;;;;;;;;5051983;28;20029;-40
2024/03/16 05:40:04;;;;;;;2.30;1.02;;;;;;;;;;5052221;28;20032;-37
2024/03/16 05:42:34;;;;;;;1.92;0.90;;;;;;;;;;5052112;28;20138;-37
2024/03/16 05:45:01;;;;;;;4.15;1.17;;;;;;;;;;5051867;28;20043;-38
2024/03/16 05:47:28;;;;;;;1.33;0.93;;;;;;;;;;5051890;28;20037;-36
2024/03/16 05:49:55;;;;;;;3.63;1.10;;;;;;;;;;5051905;28;20483;-37
2024/03/16 05:52:22;;;;;;;2.33;1.00;;;;;;;;;;5051979;28;20025;-39
2024/03/16 05:54:49;;;;;;;5.72;0.80;;;;;;;;;;5051951;28;20027;-38
2024/03/16 05:57:16;;;;;;;2.72;1.00;;;;;;;;;;5051862;28;20056;-39
2024/03/16 05:59:43;;;;;;;4.03;1.33;;;;;;;;;;5051844;28;20391;-37
2024/03/16 06:02:10;;;;;;;3.72;1.00;;;;;;;;;;5052114;28;20025;-38
2024/03/16 06:04:37;;;;;;;4.38;1.13;;;;;;;;;;5065853;28;20077;-36
2024/03/16 06:07:04;;;;;;;1.48;0.80;;;;;;;;;;5066452;28;20060;-38
2024/03/16 06:09:31;;;;;;;3.28;1.25;;;;;;;;;;5051504;28;20053;-40
2024/03/16 06:11:58;;;;;;;3.25;1.10;;;;;;;;;;5051724;28;20029;-36
2024/03/16 06:14:25;;;;;;;2.67;0.82;;;;;;;;;;5054751;28;20020;-35
2024/03/16 06:16:53;;;;;;;5.20;1.10;;;;;;;;;;5071516;28;20021;-33
2024/03/16 06:19:20;;;;;;;2.92;1.00;;;;;;;;;;5071459;28;20100;-34
2024/03/16 06:21:47;;;;;;;3.53;0.90;;;;;;;;;;5071643;28;20028;-35
2024/03/16 06:24:14;;;;;;;3.28;1.02;;;;;;;;;;5071382;28;20027;-34
2024/03/16 06:26:48;;;;;;;2.05;0.90;;;;;;;;;;5071329;28;20521;-35
2024/03/16 06:29:17;;;;;;;2.55;0.95;;;;;;;;;;5070849;28;20036;-34
2024/03/16 06:31:47;;;;;;;2.22;0.70;;;;;;;;;;5063856;28;20179;-36
2024/03/16 06:34:14;;;;;;;8.35;1.25;;;;;;;;;;5051303;28;20037;-36
2024/03/16 06:36:41;;;;;;;4.53;1.23;;;;;;;;;;5051314;28;20074;-36
2024/03/16 06:39:11;;;;;;;10.85;1.40;;;;;;;;;;5051332;28;20033;-34
2024/03/16 06:41:38;;;;;;;3.67;0.90;;;;;;;;;;5051303;28;20399;-34
2024/03/16 06:44:05;;;;;;;4.13;1.10;;;;;;;;;;5051358;28;20018;-35
2024/03/16 06:46:32;;;;;;;2.85;0.75;;;;;;;;;;5051029;28;20060;-35
2024/03/16 06:49:05;;;;;;;3.42;1.05;;;;;;;;;;5051304;28;20095;-36
2024/03/16 06:51:32;;;;;;;5.32;1.20;;;;;;;;;;5051112;28;20088;-35
2024/03/16 06:53:59;;;;;;;2.78;1.15;;;;;;;;;;5051196;28;20029;-33
2024/03/16 06:56:26;;;;;;;2.45;1.10;;;;;;;;;;5051133;28;20029;-36
2024/03/16 06:58:53;;;;;;;6.10;1.40;;;;;;;;;;5051213;28;20033;-36
2024/03/16 07:01:20;;;;;;;7.65;1.83;;;;;;;;;;5051167;28;20017;-37
2024/03/16 07:03:47;;;;;;;5.63;2.63;;;;;;;;;;5051145;28;20036;-40
2024/03/16 07:06:14;;;;;;;4.40;2.67;;;;;;;;;;5050938;28;20052;-38
2024/03/16 07:08:41;;;;;;;7.60;4.07;;;;;;;;;;5050817;28;20578;-40
2024/03/16 07:11:08;;;;;;;7.68;4.55;;;;;;;;;;5051103;28;20025;-37
2024/03/16 07:13:35;;;;;;;9.70;5.45;;;;;;;;;;5051072;28;20451;-36
2024/03/16 07:16:02;;;;;;;9.73;6.88;;;;;;;;;;5050925;28;20046;-39
2024/03/16 07:18:29;;;;;;;16.65;10.38;;;;;;;;;;5050976;28;20517;-39
2024/03/16 07:20:59;;;;;;;13.65;9.82;;;;;;;;;;5051060;28;20025;-36
2024/03/16 07:23:26;;;;;;;12.50;8.55;;;;;;;;;;5051015;28;20028;-34
2024/03/16 07:25:53;;;;;;;10.43;7.00;;;;;;;;;;5050770;28;20056;-38
2024/03/16 07:28:20;;;;;;;10.40;5.95;;;;;;;;;;5050871;28;20025;-38
2024/03/16 07:30:47;;;;;;;7.43;4.90;;;;;;;;;;5050959;28;20066;-37
2024/03/16 07:33:14;;;;;;;7.57;4.30;;;;;;;;;;5050882;28;20025;-37
2024/03/16 07:35:42;;;;;;;6.65;3.50;;;;;;;;;;5050740;28;20017;-38
2024/03/16 07:38:09;;;;;;;8.75;3.83;;;;;;;;;;5050690;28;20025;-36
2024/03/16 07:40:36;;;;;;;5.00;3.80;;;;;;;;;;5051168;28;20017;-37
2024/03/16 07:43:03;;;;;;;7.78;4.45;;;;;;;;;;5054545;28;20439;-36
2024/03/16 07:45:31;;;;;;;8.63;5.18;;;;;;;;;;5054221;28;20036;-38
2024/03/16 07:47:58;;;;;;;9.43;5.60;;;;;;;;;;5054189;28;20040;-38
2024/03/16 07:52:51;;;;;;;6.97;5.15;;;;;;;;;;5090703;28;20060;-34
2024/03/16 07:55:18;;;;;;;11.15;6.38;;;;;;;;;;5094550;28;20036;-34
2024/03/16 07:57:45;;;;;;;14.02;7.60;;;;;;;;;;5094645;28;20432;-34
2024/03/16 08:00:13;;;;;;;9.25;6.50;;;;;;;;;;5093508;28;20032;-35
2024/03/16 08:02:40;;;;;;;12.25;6.85;;;;;;;;;;5094393;28;20043;-35
2024/03/16 08:05:11;;;;;;;7.72;4.82;;;;;;;;;;5094253;28;20042;-35
2024/03/16 08:07:41;;;;;;;5.18;3.35;;;;;;;;;;5094157;28;20024;-35
2024/03/16 08:10:09;;;;;;;5.78;3.00;;;;;;;;;;5092842;28;20093;-36
2024/03/16 08:12:37;;;;;;;4.90;1.75;;;;;;;;;;5094047;28;20507;-34
2024/03/16 08:15:05;;;;;;;3.40;1.23;;;;;;;;;;5094004;28;20020;-37
2024/03/16 08:17:32;;;;;;;3.80;1.15;;;;;;;;;;5094144;28;20399;-34
2024/03/16 08:19:59;;;;;;;1.63;0.98;;;;;;;;;;5093825;28;20028;-35
2024/03/16 08:22:26;;;;;;;2.53;0.80;;;;;;;;;;5093943;28;20375;-35
2024/03/16 08:24:53;;;;;;;0.68;0.65;;;;;;;;;;5093945;28;20050;-35
2024/03/16 08:27:22;;;;;;;1.52;0.85;;;;;;;;;;5093716;28;20039;-34
2024/03/16 08:29:49;;;;;;;1.13;0.70;;;;;;;;;;5093641;28;20127;-35
2024/03/16 08:32:16;;;;;;;0.95;0.85;;;;;;;;;;5092536;28;20028;-35
2024/03/16 08:34:43;;;;;;;0.68;0.63;;;;;;;;;;5093623;28;20092;-36
2024/03/16 08:37:09;;;;;;;2.50;1.00;;;;;;;;;;5093651;28;20036;-36
2024/03/16 08:39:38;;;;;;;2.20;0.80;;;;;;;;;;5093508;28;20070;-34
2024/03/16 08:42:05;;;;;;;2.67;1.10;;;;;;;;;;5093359;28;20126;-34
2024/03/16 08:44:32;;;;;;;2.45;0.90;;;;;;;;;;5093592;28;20044;-34
2024/03/16 08:46:59;;;;;;;4.65;1.25;;;;;;;;;;5093238;28;20484;-34
2024/03/16 08:49:26;;;;;;;1.40;0.90;;;;;;;;;;5093350;28;20038;-35
2024/03/16 08:51:54;;;;;;;2.88;1.10;;;;;;;;;;5092626;28;20072;-35
2024/03/16 08:54:21;;;;;;;1.80;0.63;;;;;;;;;;5092790;28;20036;-35
2024/03/16 08:56:48;;;;;;;2.05;0.80;;;;;;;;;;5093140;28;20027;-34
2024/03/16 08:59:15;;;;;;;0.93;0.75;;;;;;;;;;5093151;28;20071;-34
2024/03/16 09:01:42;;;;;;;1.08;0.88;;;;;;;;;;5092901;28;20161;-34
2024/03/16 09:04:09;;;;;;;1.40;0.93;;;;;;;;;;5092999;28;20028;-35
2024/03/16 09:06:38;;;;;;;1.67;1.05;;;;;;;;;;5092932;28;20040;-35
2024/03/16 09:09:10;;;;;;;0.93;0.80;;;;;;;;;;5092899;28;20028;-35
2024/03/16 09:11:37;;;;;;;;;;;;;;;;;;5093235;28;20119;-35
2024/03/16 09:14:05;;;;;;;1.63;0.90;;;;;;;;;;5092987;28;19911;-35
2024/03/16 09:16:40;;;;;;;2.05;0.70;;;;;;;;;;5093131;28;20059;-36
2024/03/16 09:19:07;;;;;;;2.83;1.02;;;;;;;;;;5092748;28;20397;-35
2024/03/16 09:21:34;;;;;;;2.35;0.90;;;;;;;;;;5092669;28;20100;-36
2024/03/16 09:24:01;;;;;;;2.03;0.90;;;;;;;;;;5092516;28;20031;-35
2024/03/16 09:26:28;;;;;;;1.30;0.70;;;;;;;;;;5092605;28;20056;-35
2024/03/16 09:28:55;;;;;;;1.80;0.80;;;;;;;;;;5092594;28;20040;-36
2024/03/16 09:31:27;;;;;;;1.25;0.80;;;;;;;;;;5092380;28;20413;-35
2024/03/16 09:33:54;;;;;;;2.65;1.00;;;;;;;;;;5092492;28;20094;-35
2024/03/16 09:36:21;;;;;;;1.45;0.82;;;;;;;;;;5092570;28;20039;-35
2024/03/16 09:38:48;;;;;;;1.55;0.90;;;;;;;;;;5092469;28;20016;-35
2024/03/16 09:41:22;;;;;;;1.85;0.77;;;;;;;;;;5092315;28;20095;-35
2024/03/16 09:43:48;;;;;;;3.40;1.13;;;;;;;;;;5092468;28;20032;-35
2024/03/16 09:46:16;;;;;;;0.98;0.80;;;;;;;;;;5092331;28;20068;-36
2024/03/16 09:48:43;;;;;;;2.33;0.68;;;;;;;;;;5092365;28;20047;-35
2024/03/16 09:51:17;;;;;;;1.98;0.80;;;;;;;;;;5092019;28;20040;-35
2024/03/16 09:53:44;;;;;;;1.25;0.70;;;;;;;;;;5092273;28;20146;-35
2024/03/16 09:56:13;;;;;;;4.50;0.93;;;;;;;;;;5092307;28;20693;-36
2024/03/16 09:58:43;;;;;;;1.48;0.73;;;;;;;;;;5092224;28;20028;-36
2024/03/16 10:01:10;;;;;;;2.08;1.00;;;;;;;;;;5090652;28;20089;-36
2024/03/16 10:03:37;;;;;;;3.45;1.10;;;;;;;;;;5091191;28;20084;-35
2024/03/16 10:06:05;;;;;;;1.17;0.75;;;;;;;;;;5091954;28;20043;-35
2024/03/16 10:08:32;;;;;;;1.02;0.80;;;;;;;;;;5092070;28;20039;-36
2024/03/16 10:11:06;;;;;;;1.77;0.77;;;;;;;;;;5091593;28;20031;-35
2024/03/16 10:13:33;;;;;;;2.92;0.80;;;;;;;;;;5091853;28;20028;-36
2024/03/16 10:16:01;;;;;;;1.98;0.85;;;;;;;;;;5091665;28;20032;-35
2024/03/16 10:18:27;;;;;;;5.00;1.20;;;;;;;;;;5091620;28;20472;-35
2024/03/16 10:20:56;;;;;;;2.30;0.95;;;;;;;;;;5091757;28;20036;-35
2024/03/16 10:23:26;;;;;;;3.63;0.90;;;;;;;;;;5091650;28;20028;-34
2024/03/16 10:25:56;;;;;;;1.35;0.70;;;;;;;;;;5091763;28;20169;-34
2024/03/16 10:28:23;;;;;;;4.72;1.00;;;;;;;;;;5091620;28;20036;-34
2024/03/16 10:30:50;;;;;;;3.03;0.68;;;;;;;;;;5091631;28;20035;-34
2024/03/16 10:33:20;;;;;;;3.55;1.00;;;;;;;;;;5091611;28;20048;-34
2024/03/16 10:35:47;;;;;;;1.02;0.60;;;;;;;;;;5091677;28;20404;-34
2024/03/16 10:38:14;;;;;;;2.08;0.85;;;;;;;;;;5091686;28;20584;-34
2024/03/16 10:40:41;;;;;;;3.13;0.70;;;;;;;;;;5091370;28;20066;-35
2024/03/16 10:43:12;;;;;;;3.33;0.90;;;;;;;;;;5091586;28;20055;-35
2024/03/16 10:45:45;;;;;;;4.63;0.90;;;;;;;;;;5091484;28;20032;-35
2024/03/16 10:48:18;;;;;;;3.88;0.90;;;;;;;;;;5091480;28;20055;-35
2024/03/16 10:50:47;;;;;;;;;;;;;;;;;;5091757;28;20043;-35
2024/03/16 10:53:15;;;;;;;2.72;1.02;;;;;;;;;;5091342;28;19962;-35
2024/03/16 10:55:42;;;;;;;5.80;0.80;;;;;;;;;;5091505;28;20557;-35
2024/03/16 10:58:27;;;;;;;1.80;0.80;;;;;;;;;;5091520;28;20024;-35
2024/03/16 11:01:02;;;;;;;6.18;1.00;;;;;;;;;;5091394;28;20423;-35
2024/03/16 11:03:31;;;;;;;4.28;0.73;;;;;;;;;;5091385;28;20024;-36
2024/03/16 11:06:02;;;;;;;2.17;0.90;;;;;;;;;;5091321;28;20043;-35
2024/03/16 11:08:36;;;;;;;2.17;0.80;;;;;;;;;;5091394;28;20115;-35
2024/03/16 11:11:08;;;;;;;6.63;1.00;;;;;;;;;;5091129;28;20105;-34
2024/03/16 11:13:39;;;;;;;2.23;0.90;;;;;;;;;;5091267;28;20035;-34
2024/03/16 11:16:25;;;;;;;17.58;2.40;;;;;;;;;;5093966;28;20675;-34
2024/03/16 11:18:56;;;;;;;8.60;1.20;;;;;;;;;;5095003;28;20040;-34
2024/03/16 11:21:22;;;;;;;7.03;1.38;;;;;;;;;;5095093;28;20024;-34
2024/03/16 11:23:51;;;;;;;7.15;1.15;;;;;;;;;;5094945;28;20031;-34
2024/03/16 11:26:27;;;;;;;6.00;1.00;;;;;;;;;;5094776;28;20066;-33
2024/03/16 11:29:04;;;;;;;8.88;1.00;;;;;;;;;;5095020;28;20503;-34
2024/03/16 11:31:39;;;;;;;7.90;0.98;;;;;;;;;;5094835;28;20067;-33
2024/03/16 11:34:09;;;;;;;9.18;1.20;;;;;;;;;;5094741;28;20039;-33
2024/03/16 11:36:38;;;;;;;4.90;0.93;;;;;;;;;;5094519;28;20103;-35
2024/03/16 11:39:11;;;;;;;9.18;1.05;;;;;;;;;;5094699;28;20111;-33
2024/03/16 11:41:45;;;;;;;15.23;1.92;;;;;;;;;;5094299;28;20031;-33
2024/03/16 11:44:15;;;;;;;3.78;0.60;;;;;;;;;;5094577;28;20028;-34
2024/03/16 11:46:46;;;;;;;10.40;1.20;;;;;;;;;;5093205;28;20040;-34
2024/03/16 11:49:17;;;;;;;5.03;1.15;;;;;;;;;;5093400;28;20028;-35
2024/03/16 11:51:44;;;;;;;4.50;0.77;;;;;;;;;;5093602;28;20028;-35
2024/03/16 11:54:14;;;;;;;2.70;0.65;;;;;;;;;;5093877;28;20595;-34
2024/03/16 11:56:44;;;;;;;5.93;1.23;;;;;;;;;;5093849;28;20107;-34
2024/03/16 11:59:14;;;;;;;5.07;0.82;;;;;;;;;;5094265;28;20111;-33
2024/03/16 12:01:42;;;;;;;7.45;0.75;;;;;;;;;;5093341;28;20036;-34
2024/03/16 12:04:10;;;;;;;11.10;0.90;;;;;;;;;;5093022;28;20032;-33
2024/03/16 12:06:37;;;;;;;16.50;1.52;;;;;;;;;;5093071;28;20039;-34
2024/03/16 12:09:13;;;;;;;4.38;0.70;;;;;;;;;;5093437;28;20067;-33
2024/03/16 12:11:40;;;;;;;11.10;0.90;;;;;;;;;;5091573;28;20371;-33
2024/03/16 12:14:10;;;;;;;14.27;1.60;;;;;;;;;;5093346;28;20024;-34
2024/03/16 12:16:41;;;;;;;12.55;1.40;;;;;;;;;;5093368;28;20466;-33
2024/03/16 12:19:14;;;;;;;14.73;1.45;;;;;;;;;;5092454;28;20131;-33
2024/03/16 12:21:42;;;;;;;14.93;1.25;;;;;;;;;;5092833;28;20477;-33
2024/03/16 12:24:12;;;;;;;10.98;1.70;;;;;;;;;;5091395;28;20039;-33
2024/03/16 12:26:49;;;;;;;16.00;1.40;;;;;;;;;;5092190;28;20036;-33
2024/03/16 12:29:16;;;;;;;13.38;1.52;;;;;;;;;;5092433;28;20435;-34
2024/03/16 12:31:44;;;;;;;10.23;1.25;;;;;;;;;;5092984;28;20074;-33
2024/03/16 12:34:12;;;;;;;4.85;0.82;;;;;;;;;;5092775;28;20016;-34
2024/03/16 12:36:39;;;;;;;262.10;22.83;;;;;;;;;;5092830;28;20036;-34
2024/03/16 12:39:11;;;;;;;65.78;5.68;;;;;;;;;;5092871;28;20381;-34
2024/03/16 12:41:39;;;;;;;25.88;2.50;;;;;;;;;;5091434;28;20081;-33
2024/03/16 12:44:06;;;;;;;29.42;3.13;;;;;;;;;;5092341;28;20508;-33
2024/03/16 12:46:33;;;;;;;293.45;16.58;;;;;;;;;;5092630;28;20040;-33
2024/03/16 12:49:00;;;;;;;39.08;3.15;;;;;;;;;;5092091;28;20031;-36
2024/03/16 12:51:27;;;;;;;21.95;1.60;;;;;;;;;;5113203;28;20388;-34
2024/03/16 12:53:54;;;;;;;24.95;1.67;;;;;;;;;;5093031;28;20067;-34
2024/03/16 12:56:22;;;;;;;23.95;3.53;;;;;;;;;;5076216;28;20393;-31
2024/03/16 12:58:49;;;;;;;16.92;2.63;;;;;;;;;;5071086;28;20030;-32
2024/03/16 13:01:16;;;;;;;36.13;4.15;;;;;;;;;;5072686;28;20029;-32
2024/03/16 13:03:43;;;;;;;76.38;6.25;;;;;;;;;;5072648;28;20025;-32
2024/03/16 13:06:15;;;;;;;46.15;3.65;;;;;;;;;;5072264;28;20037;-35
2024/03/16 13:08:42;;;;;;;36.67;3.70;;;;;;;;;;5072356;28;20032;-39
2024/03/16 13:11:13;;;;;;;34.20;3.10;;;;;;;;;;5071023;28;20032;-35
2024/03/16 13:13:40;;;;;;;54.60;4.07;;;;;;;;;;5072247;28;20035;-33
2024/03/16 13:16:07;;;;;;;23.85;2.05;;;;;;;;;;5072437;28;20040;-32
2024/03/16 13:18:34;;;;;;;32.35;3.72;;;;;;;;;;5071387;28;20548;-34
2024/03/16 13:21:02;;;;;;;51.53;6.18;;;;;;;;;;5071600;28;20505;-35
2024/03/16 13:23:29;;;;;;;41.20;4.78;;;;;;;;;;5071589;28;20028;-33
2024/03/16 13:25:56;;;;;;;40.97;3.72;;;;;;;;;;5071684;28;20044;-32
2024/03/16 13:28:23;;;;;;;27.05;2.35;;;;;;;;;;5071698;28;20060;-34
2024/03/16 13:30:51;;;;;;;13.75;1.52;;;;;;;;;;5066668;28;20028;-32
2024/03/16 13:33:18;;;;;;;16.85;1.25;;;;;;;;;;5071124;28;20033;-32
2024/03/16 13:35:45;;;;;;;15.18;1.25;;;;;;;;;;5071635;28;20060;-32
2024/03/16 13:38:12;;;;;;;18.85;1.67;;;;;;;;;;5071341;28;20036;-37
2024/03/16 13:40:39;;;;;;;18.58;1.80;;;;;;;;;;5072001;28;20087;-35
2024/03/16 13:43:08;;;;;;;30.88;3.50;;;;;;;;;;5072020;28;20052;-34
2024/03/16 13:45:42;;;;;;;38.85;3.05;;;;;;;;;;5071774;28;20031;-34
2024/03/16 13:48:09;;;;;;;49.58;2.80;;;;;;;;;;5074020;28;20562;-34
2024/03/16 13:50:36;;;;;;;42.08;3.90;;;;;;;;;;5069480;28;20028;-32
2024/03/16 13:53:03;;;;;;;31.70;2.58;;;;;;;;;;5070609;28;20071;-31
2024/03/16 13:55:30;;;;;;;80.80;5.90;;;;;;;;;;5070802;28;20040;-36
2024/03/16 13:57:57;;;;;;;29.27;2.25;;;;;;;;;;5070985;28;20028;-33
2024/03/16 14:00:26;;;;;;;19.98;2.00;;;;;;;;;;5070574;28;20154;-32
2024/03/16 14:02:54;;;;;;;18.33;1.90;;;;;;;;;;5070509;28;20035;-33
2024/03/16 14:05:21;;;;;;;13.30;1.98;;;;;;;;;;5070523;28;20065;-35
2024/03/16 14:07:48;;;;;;;21.48;2.55;;;;;;;;;;5070868;28;20050;-33
2024/03/16 14:10:18;;;;;;;46.33;3.92;;;;;;;;;;5070120;28;20047;-33
2024/03/16 14:12:48;;;;;;;21.10;1.88;;;;;;;;;;5070598;28;20843;-34
2024/03/16 14:15:22;;;;;;;17.25;1.98;;;;;;;;;;5068828;28;20097;-33
2024/03/16 14:17:49;;;;;;;28.20;2.40;;;;;;;;;;5069885;28;20016;-34
2024/03/16 14:20:20;;;;;;;46.95;3.70;;;;;;;;;;5069395;28;20367;-34
2024/03/16 14:22:51;;;;;;;21.75;1.38;;;;;;;;;;5070765;28;20098;-33
2024/03/16 14:25:18;;;;;;;34.05;2.22;;;;;;;;;;5070838;28;20016;-33
2024/03/16 14:27:46;;;;;;;27.13;2.85;;;;;;;;;;5070217;28;20085;-33
2024/03/16 14:30:15;;;;;;;36.45;2.53;;;;;;;;;;5070536;28;20035;-34
2024/03/16 14:32:46;;;;;;;54.38;3.95;;;;;;;;;;5070764;28;20020;-32
2024/03/16 14:35:17;;;;;;;61.80;5.40;;;;;;;;;;5068863;28;20394;-34
2024/03/16 14:37:45;;;;;;;76.18;8.55;;;;;;;;;;5070724;28;20021;-31
2024/03/16 14:40:12;;;;;;;57.63;5.80;;;;;;;;;;5070676;28;20024;-34
2024/03/16 14:42:44;;;;;;;53.95;5.85;;;;;;;;;;5070778;28;20070;-33
2024/03/16 14:45:11;;;;;;;34.72;3.10;;;;;;;;;;5068331;28;20025;-35